sensor_id;sensor_type;location;lat;lon;timestamp;pressure;altitude;pressure_sealevel;temperature;humidity
73085;BME280;62974;49.460;10.892;2023-08-30T00:00:04;97153.69;;;14.82;100.00
73085;BME280;62974;49.460;10.892;2023-08-30T00:02:32;97147.22;;;14.83;100.00
73085;BME280;62974;49.460;10.892;2023-08-30T00:05:00;97161.22;;;14.80;100.00
73085;BME280;62974;49.460;10.892;2023-08-30T00:07:28;97151.38;;;14.74;100.00
73085;BME280;62974;49.460;10.892;2023-08-30T00:09:55;97152.78;;;14.77;100.00
73085;BME280;62974;49.460;10.892;2023-08-30T00:12:24;97161.94;;;14.76;100.00
73085;BME280;62974;49.460;10.892;2023-08-30T00:14:52;97157.03;;;14.73;100.00
73085;BME280;62974;49.460;10.892;2023-08-30T00:17:20;97150.53;;;14.74;100.00
73085;BME280;62974;49.460;10.892;2023-08-30T00:19:47;97142.44;;;14.74;100.00
73085;BME280;62974;49.460;10.892;2023-08-30T00:22:15;97144.56;;;14.72;100.00
73085;BME280;62974;49.460;10.892;2023-08-30T00:24:43;97146.22;;;14.73;100.00
73085;BME280;62974;49.460;10.892;2023-08-30T00:27:11;97139.88;;;14.67;100.00
73085;BME280;62974;49.460;10.892;2023-08-30T00:29:40;97145.53;;;14.66;100.00
73085;BME280;62974;49.460;10.892;2023-08-30T00:32:08;97143.31;;;14.63;100.00
73085;BME280;62974;49.460;10.892;2023-08-30T00:34:36;97141.22;;;14.65;100.00
73085;BME280;62974;49.460;10.892;2023-08-30T00:37:03;97138.25;;;14.66;100.00
73085;BME280;62974;49.460;10.892;2023-08-30T00:39:31;97141.78;;;14.67;100.00
73085;BME280;62974;49.460;10.892;2023-08-30T00:41:58;97138.50;;;14.65;100.00
73085;BME280;62974;49.460;10.892;2023-08-30T00:44:31;97133.91;;;14.65;100.00
73085;BME280;62974;49.460;10.892;2023-08-30T00:47:01;97137.69;;;14.64;100.00
73085;BME280;62974;49.460;10.892;2023-08-30T00:49:29;97134.66;;;14.61;100.00
73085;BME280;62974;49.460;10.892;2023-08-30T00:51:58;97145.91;;;14.57;100.00
73085;BME280;62974;49.460;10.892;2023-08-30T00:54:29;97144.75;;;14.53;100.00
73085;BME280;62974;49.460;10.892;2023-08-30T00:56:57;97139.94;;;14.55;100.00
73085;BME280;62974;49.460;10.892;2023-08-30T00:59:25;97137.81;;;14.57;100.00
73085;BME280;62974;49.460;10.892;2023-08-30T01:01:55;97141.81;;;14.55;100.00
73085;BME280;62974;49.460;10.892;2023-08-30T01:04:24;97132.94;;;14.43;100.00
73085;BME280;62974;49.460;10.892;2023-08-30T01:06:51;97126.16;;;14.40;100.00
73085;BME280;62974;49.460;10.892;2023-08-30T01:09:19;97133.34;;;14.35;100.00
73085;BME280;62974;49.460;10.892;2023-08-30T01:11:48;97131.78;;;13.87;100.00
73085;BME280;62974;49.460;10.892;2023-08-30T01:14:20;97140.22;;;14.02;100.00
73085;BME280;62974;49.460;10.892;2023-08-30T01:16:49;97137.72;;;14.13;100.00
73085;BME280;62974;49.460;10.892;2023-08-30T01:19:41;97146.25;;;14.33;100.00
73085;BME280;62974;49.460;10.892;2023-08-30T01:22:16;97142.03;;;14.37;100.00
73085;BME280;62974;49.460;10.892;2023-08-30T01:27:33;97141.78;;;14.38;100.00
73085;BME280;62974;49.460;10.892;2023-08-30T01:30:02;97138.50;;;14.36;100.00
73085;BME280;62974;49.460;10.892;2023-08-30T01:32:33;97141.53;;;14.40;100.00
73085;BME280;62974;49.460;10.892;2023-08-30T01:35:02;97148.00;;;14.39;100.00
73085;BME280;62974;49.460;10.892;2023-08-30T01:37:31;97140.94;;;14.38;100.00
73085;BME280;62974;49.460;10.892;2023-08-30T01:40:01;97136.97;;;14.40;100.00
73085;BME280;62974;49.460;10.892;2023-08-30T01:42:32;97134.50;;;14.39;100.00
73085;BME280;62974;49.460;10.892;2023-08-30T01:45:03;97136.97;;;14.40;100.00
73085;BME280;62974;49.460;10.892;2023-08-30T01:47:31;97138.25;;;14.38;100.00
73085;BME280;62974;49.460;10.892;2023-08-30T01:50:00;97133.66;;;14.38;100.00
73085;BME280;62974;49.460;10.892;2023-08-30T01:52:30;97135.81;;;14.36;100.00
73085;BME280;62974;49.460;10.892;2023-08-30T01:55:00;97144.72;;;14.37;100.00
73085;BME280;62974;49.460;10.892;2023-08-30T01:57:29;97148.47;;;14.36;100.00
73085;BME280;62974;49.460;10.892;2023-08-30T01:59:58;97149.31;;;14.36;100.00
73085;BME280;62974;49.460;10.892;2023-08-30T02:02:28;97140.84;;;14.33;100.00
73085;BME280;62974;49.460;10.892;2023-08-30T02:04:58;97152.44;;;14.33;100.00
73085;BME280;62974;49.460;10.892;2023-08-30T02:07:30;97151.88;;;14.31;100.00
73085;BME280;62974;49.460;10.892;2023-08-30T02:10:03;97153.75;;;14.31;100.00
73085;BME280;62974;49.460;10.892;2023-08-30T02:12:37;97152.09;;;14.30;100.00
73085;BME280;62974;49.460;10.892;2023-08-30T02:15:10;97152.34;;;14.28;100.00
73085;BME280;62974;49.460;10.892;2023-08-30T02:17:39;97144.00;;;14.30;100.00
73085;BME280;62974;49.460;10.892;2023-08-30T02:20:07;97146.97;;;14.28;100.00
73085;BME280;62974;49.460;10.892;2023-08-30T02:22:35;97142.59;;;14.27;100.00
73085;BME280;62974;49.460;10.892;2023-08-30T02:25:03;97149.06;;;14.26;100.00
73085;BME280;62974;49.460;10.892;2023-08-30T02:27:31;97143.44;;;14.28;100.00
73085;BME280;62974;49.460;10.892;2023-08-30T02:29:58;97138.25;;;14.26;100.00
73085;BME280;62974;49.460;10.892;2023-08-30T02:32:27;97131.47;;;14.24;100.00
73085;BME280;62974;49.460;10.892;2023-08-30T02:34:56;97130.63;;;14.23;100.00
73085;BME280;62974;49.460;10.892;2023-08-30T02:37:24;97131.13;;;14.20;100.00
73085;BME280;62974;49.460;10.892;2023-08-30T02:39:52;97138.91;;;14.17;100.00
73085;BME280;62974;49.460;10.892;2023-08-30T02:42:19;97130.31;;;14.20;100.00
73085;BME280;62974;49.460;10.892;2023-08-30T02:44:47;97134.88;;;14.19;100.00
73085;BME280;62974;49.460;10.892;2023-08-30T02:47:14;97126.28;;;14.22;100.00
73085;BME280;62974;49.460;10.892;2023-08-30T02:49:43;97125.97;;;14.19;100.00
73085;BME280;62974;49.460;10.892;2023-08-30T02:52:11;97126.22;;;14.17;100.00
73085;BME280;62974;49.460;10.892;2023-08-30T02:54:39;97133.00;;;14.20;100.00
73085;BME280;62974;49.460;10.892;2023-08-30T02:57:06;97126.78;;;14.19;100.00
73085;BME280;62974;49.460;10.892;2023-08-30T02:59:37;97130.31;;;14.20;100.00
73085;BME280;62974;49.460;10.892;2023-08-30T03:02:05;97129.97;;;14.16;100.00
73085;BME280;62974;49.460;10.892;2023-08-30T03:04:34;97125.13;;;14.18;100.00
73085;BME280;62974;49.460;10.892;2023-08-30T03:07:03;97128.66;;;14.19;100.00
73085;BME280;62974;49.460;10.892;2023-08-30T03:09:31;97131.34;;;14.19;100.00
73085;BME280;62974;49.460;10.892;2023-08-30T03:11:58;97129.47;;;14.19;100.00
73085;BME280;62974;49.460;10.892;2023-08-30T03:14:26;97131.63;;;14.17;100.00
73085;BME280;62974;49.460;10.892;2023-08-30T03:16:54;97125.13;;;14.18;100.00
73085;BME280;62974;49.460;10.892;2023-08-30T03:19:21;97125.97;;;14.19;100.00
73085;BME280;62974;49.460;10.892;2023-08-30T03:21:49;97122.44;;;14.18;100.00
73085;BME280;62974;49.460;10.892;2023-08-30T03:24:18;97120.56;;;14.19;100.00
73085;BME280;62974;49.460;10.892;2023-08-30T03:26:45;97129.47;;;14.19;100.00
73085;BME280;62974;49.460;10.892;2023-08-30T03:29:13;97117.03;;;14.18;100.00
73085;BME280;62974;49.460;10.892;2023-08-30T03:31:41;97122.91;;;14.15;100.00
73085;BME280;62974;49.460;10.892;2023-08-30T03:34:09;97134.53;;;14.16;100.00
73085;BME280;62974;49.460;10.892;2023-08-30T03:36:37;97129.97;;;14.16;100.00
73085;BME280;62974;49.460;10.892;2023-08-30T03:39:05;97133.94;;;14.13;100.00
73085;BME280;62974;49.460;10.892;2023-08-30T03:41:34;97129.13;;;14.16;100.00
73085;BME280;62974;49.460;10.892;2023-08-30T03:44:02;97129.63;;;14.13;100.00
73085;BME280;62974;49.460;10.892;2023-08-30T03:46:29;97127.16;;;14.11;100.00
73085;BME280;62974;49.460;10.892;2023-08-30T03:48:57;97125.06;;;14.13;100.00
73085;BME280;62974;49.460;10.892;2023-08-30T03:51:24;97121.28;;;14.14;100.00
73085;BME280;62974;49.460;10.892;2023-08-30T03:53:52;97126.09;;;14.12;100.00
73085;BME280;62974;49.460;10.892;2023-08-30T03:56:21;97127.97;;;14.11;100.00
73085;BME280;62974;49.460;10.892;2023-08-30T03:58:50;97130.69;;;14.11;100.00
73085;BME280;62974;49.460;10.892;2023-08-30T04:01:17;97140.88;;;14.09;100.00
73085;BME280;62974;49.460;10.892;2023-08-30T04:03:45;97141.97;;;14.08;100.00
73085;BME280;62974;49.460;10.892;2023-08-30T04:06:13;97140.09;;;14.09;100.00
73085;BME280;62974;49.460;10.892;2023-08-30T04:08:40;97135.97;;;14.06;100.00
73085;BME280;62974;49.460;10.892;2023-08-30T04:11:08;97141.50;;;14.00;100.00
73085;BME280;62974;49.460;10.892;2023-08-30T04:13:35;97137.84;;;14.06;100.00
73085;BME280;62974;49.460;10.892;2023-08-30T04:16:04;97139.16;;;14.03;100.00
73085;BME280;62974;49.460;10.892;2023-08-30T04:18:32;97137.50;;;14.02;100.00
73085;BME280;62974;49.460;10.892;2023-08-30T04:20:59;97138.56;;;14.01;100.00
73085;BME280;62974;49.460;10.892;2023-08-30T04:23:28;97150.66;;;13.99;100.00
73085;BME280;62974;49.460;10.892;2023-08-30T04:25:56;97146.91;;;14.00;100.00
73085;BME280;62974;49.460;10.892;2023-08-30T04:28:23;97150.47;;;13.89;100.00
73085;BME280;62974;49.460;10.892;2023-08-30T04:30:53;97142.44;;;13.94;100.00
73085;BME280;62974;49.460;10.892;2023-08-30T04:33:22;97150.09;;;13.97;100.00
73085;BME280;62974;49.460;10.892;2023-08-30T04:35:50;97147.84;;;13.94;100.00
73085;BME280;62974;49.460;10.892;2023-08-30T04:38:18;97143.63;;;13.98;100.00
73085;BME280;62974;49.460;10.892;2023-08-30T04:40:46;97141.63;;;13.93;100.00
73085;BME280;62974;49.460;10.892;2023-08-30T04:43:14;97138.47;;;13.96;100.00
73085;BME280;62974;49.460;10.892;2023-08-30T04:45:47;97140.09;;;13.97;100.00
73085;BME280;62974;49.460;10.892;2023-08-30T04:48:14;97138.69;;;13.95;100.00
73085;BME280;62974;49.460;10.892;2023-08-30T04:50:43;97151.16;;;13.96;100.00
73085;BME280;62974;49.460;10.892;2023-08-30T04:53:11;97153.25;;;13.94;100.00
73085;BME280;62974;49.460;10.892;2023-08-30T04:55:38;97151.97;;;13.96;100.00
73085;BME280;62974;49.460;10.892;2023-08-30T04:58:06;97156.28;;;13.97;100.00
73085;BME280;62974;49.460;10.892;2023-08-30T05:00:34;97151.16;;;13.96;100.00
73085;BME280;62974;49.460;10.892;2023-08-30T05:03:02;97149.00;;;13.98;100.00
73085;BME280;62974;49.460;10.892;2023-08-30T05:05:30;97146.91;;;14.00;100.00
73085;BME280;62974;49.460;10.892;2023-08-30T05:07:59;97149.00;;;13.98;100.00
73085;BME280;62974;49.460;10.892;2023-08-30T05:10:27;97146.34;;;13.86;100.00
73085;BME280;62974;49.460;10.892;2023-08-30T05:12:54;97149.28;;;13.96;100.00
73085;BME280;62974;49.460;10.892;2023-08-30T05:15:22;97143.63;;;13.98;100.00
73085;BME280;62974;49.460;10.892;2023-08-30T05:17:50;97144.91;;;13.95;100.00
73085;BME280;62974;49.460;10.892;2023-08-30T05:20:17;97141.63;;;14.05;100.00
73085;BME280;62974;49.460;10.892;2023-08-30T05:22:45;97143.72;;;14.03;100.00
73085;BME280;62974;49.460;10.892;2023-08-30T05:25:14;97138.56;;;14.01;100.00
73085;BME280;62974;49.460;10.892;2023-08-30T05:27:41;97135.06;;;14.01;100.00
73085;BME280;62974;49.460;10.892;2023-08-30T05:30:11;97136.00;;;13.95;100.00
73085;BME280;62974;49.460;10.892;2023-08-30T05:32:39;97134.16;;;13.84;100.00
73085;BME280;62974;49.460;10.892;2023-08-30T05:35:07;97137.50;;;14.02;100.00
73085;BME280;62974;49.460;10.892;2023-08-30T05:37:35;97131.41;;;14.07;100.00
73085;BME280;62974;49.460;10.892;2023-08-30T05:40:03;97139.31;;;13.74;100.00
73085;BME280;62974;49.460;10.892;2023-08-30T05:42:32;97129.69;;;13.89;100.00
73085;BME280;62974;49.460;10.892;2023-08-30T05:44:59;97132.59;;;13.99;100.00
73085;BME280;62974;49.460;10.892;2023-08-30T05:47:27;97133.75;;;14.03;100.00
73085;BME280;62974;49.460;10.892;2023-08-30T05:49:55;97133.53;;;13.93;100.00
73085;BME280;62974;49.460;10.892;2023-08-30T05:52:23;97141.84;;;14.03;100.00
73085;BME280;62974;49.460;10.892;2023-08-30T05:54:51;97140.94;;;13.86;100.00
73085;BME280;62974;49.460;10.892;2023-08-30T05:57:19;97141.84;;;14.03;100.00
73085;BME280;62974;49.460;10.892;2023-08-30T05:59:50;97139.97;;;14.04;100.00
73085;BME280;62974;49.460;10.892;2023-08-30T06:02:17;97147.53;;;13.79;100.00
73085;BME280;62974;49.460;10.892;2023-08-30T06:04:45;97139.88;;;13.99;100.00
73085;BME280;62974;49.460;10.892;2023-08-30T06:07:12;97140.34;;;13.96;100.00
73085;BME280;62974;49.460;10.892;2023-08-30T06:09:40;97150.59;;;13.59;100.00
73085;BME280;62974;49.460;10.892;2023-08-30T06:12:08;97143.41;;;13.88;100.00
73085;BME280;62974;49.460;10.892;2023-08-30T06:14:36;97147.03;;;13.82;100.00
73085;BME280;62974;49.460;10.892;2023-08-30T06:17:07;97145.03;;;14.00;100.00
73085;BME280;62974;49.460;10.892;2023-08-30T06:19:35;97145.06;;;13.89;100.00
73085;BME280;62974;49.460;10.892;2023-08-30T06:22:02;97144.31;;;13.93;100.00
73085;BME280;62974;49.460;10.892;2023-08-30T06:24:30;97142.56;;;13.99;100.00
73085;BME280;62974;49.460;10.892;2023-08-30T06:26:58;97146.53;;;14.08;100.00
73085;BME280;62974;49.460;10.892;2023-08-30T06:29:26;97144.41;;;14.10;100.00
73085;BME280;62974;49.460;10.892;2023-08-30T06:31:53;97139.34;;;14.13;100.00
73085;BME280;62974;49.460;10.892;2023-08-30T06:34:22;97141.59;;;14.17;100.00
73085;BME280;62974;49.460;10.892;2023-08-30T06:36:50;97157.25;;;13.91;100.00
73085;BME280;62974;49.460;10.892;2023-08-30T06:39:18;97157.63;;;13.83;100.00
73085;BME280;62974;49.460;10.892;2023-08-30T06:41:46;97157.47;;;13.90;100.00
73085;BME280;62974;49.460;10.892;2023-08-30T06:44:13;97158.28;;;14.02;100.00
73085;BME280;62974;49.460;10.892;2023-08-30T06:46:42;97151.47;;;14.11;100.00
73085;BME280;62974;49.460;10.892;2023-08-30T06:49:09;97155.84;;;13.65;100.00
73085;BME280;62974;49.460;10.892;2023-08-30T06:51:39;97153.94;;;14.13;100.00
73085;BME280;62974;49.460;10.892;2023-08-30T06:54:06;97147.06;;;14.22;100.00
73085;BME280;62974;49.460;10.892;2023-08-30T06:56:34;97150.28;;;14.07;100.00
73085;BME280;62974;49.460;10.892;2023-08-30T06:59:02;97143.47;;;14.16;100.00
73085;BME280;62974;49.460;10.892;2023-08-30T07:01:29;97148.00;;;14.27;100.00
73085;BME280;62974;49.460;10.892;2023-08-30T07:03:59;97145.31;;;14.27;100.00
73085;BME280;62974;49.460;10.892;2023-08-30T07:06:27;97147.78;;;14.29;100.00
73085;BME280;62974;49.460;10.892;2023-08-30T07:08:58;97154.72;;;14.25;100.00
73085;BME280;62974;49.460;10.892;2023-08-30T07:11:26;97141.06;;;14.31;100.00
73085;BME280;62974;49.460;10.892;2023-08-30T07:14:00;97142.44;;;14.45;100.00
73085;BME280;62974;49.460;10.892;2023-08-30T07:16:28;97145.34;;;14.55;100.00
73085;BME280;62974;49.460;10.892;2023-08-30T07:18:55;97144.97;;;14.24;100.00
73085;BME280;62974;49.460;10.892;2023-08-30T07:21:23;97143.19;;;14.41;100.00
73085;BME280;62974;49.460;10.892;2023-08-30T07:23:51;97141.25;;;14.53;100.00
73085;BME280;62974;49.460;10.892;2023-08-30T07:26:20;97139.03;;;13.98;100.00
73085;BME280;62974;49.460;10.892;2023-08-30T07:28:47;97140.72;;;14.39;100.00
73085;BME280;62974;49.460;10.892;2023-08-30T07:31:15;97131.06;;;14.03;100.00
73085;BME280;62974;49.460;10.892;2023-08-30T07:33:44;97139.91;;;14.39;100.00
73085;BME280;62974;49.460;10.892;2023-08-30T07:36:12;97140.38;;;14.36;100.00
73085;BME280;62974;49.460;10.892;2023-08-30T07:38:39;97144.69;;;14.65;100.00
73085;BME280;62974;49.460;10.892;2023-08-30T07:41:07;97147.31;;;14.88;100.00
73085;BME280;62974;49.460;10.892;2023-08-30T07:43:39;97142.22;;;14.92;100.00
73085;BME280;62974;49.460;10.892;2023-08-30T07:46:06;97141.81;;;14.83;100.00
73085;BME280;62974;49.460;10.892;2023-08-30T07:48:34;97144.69;;;14.93;100.00
73085;BME280;62974;49.460;10.892;2023-08-30T07:51:02;97143.06;;;14.92;100.00
73085;BME280;62974;49.460;10.892;2023-08-30T07:53:30;97157.47;;;14.98;100.00
73085;BME280;62974;49.460;10.892;2023-08-30T07:55:58;97149.38;;;15.15;100.00
73085;BME280;62974;49.460;10.892;2023-08-30T07:58:25;97144.63;;;15.22;100.00
73085;BME280;62974;49.460;10.892;2023-08-30T08:00:54;97146.59;;;15.26;100.00
73085;BME280;62974;49.460;10.892;2023-08-30T08:03:22;97141.00;;;15.33;100.00
73085;BME280;62974;49.460;10.892;2023-08-30T08:05:50;97139.06;;;15.12;100.00
73085;BME280;62974;49.460;10.892;2023-08-30T08:08:17;97139.69;;;15.19;100.00
73085;BME280;62974;49.460;10.892;2023-08-30T08:10:46;97139.22;;;15.22;100.00
73085;BME280;62974;49.460;10.892;2023-08-30T08:13:13;97144.13;;;15.41;100.00
73085;BME280;62974;49.460;10.892;2023-08-30T08:15:41;97142.31;;;15.47;100.00
73085;BME280;62974;49.460;10.892;2023-08-30T08:18:11;97138.22;;;15.44;100.00
73085;BME280;62974;49.460;10.892;2023-08-30T08:20:39;97133.97;;;15.48;100.00
73085;BME280;62974;49.460;10.892;2023-08-30T08:23:06;97137.09;;;15.40;100.00
73085;BME280;62974;49.460;10.892;2023-08-30T08:25:34;97140.75;;;15.18;100.00
73085;BME280;62974;49.460;10.892;2023-08-30T08:28:02;97133.22;;;15.36;100.00
73085;BME280;62974;49.460;10.892;2023-08-30T08:30:30;97138.38;;;15.38;100.00
73085;BME280;62974;49.460;10.892;2023-08-30T08:32:58;97125.84;;;15.48;100.00
73085;BME280;62974;49.460;10.892;2023-08-30T08:35:27;97134.44;;;15.62;100.00
73085;BME280;62974;49.460;10.892;2023-08-30T08:37:55;97135.66;;;15.71;100.00
73085;BME280;62974;49.460;10.892;2023-08-30T08:40:22;97138.13;;;15.73;100.00
73085;BME280;62974;49.460;10.892;2023-08-30T08:43:09;97135.41;;;15.73;100.00
73085;BME280;62974;49.460;10.892;2023-08-30T08:45:38;97134.94;;;15.76;100.00
73085;BME280;62974;49.460;10.892;2023-08-30T08:48:06;97128.00;;;15.85;100.00
73085;BME280;62974;49.460;10.892;2023-08-30T08:50:36;97126.06;;;15.80;100.00
73085;BME280;62974;49.460;10.892;2023-08-30T08:53:05;97122.97;;;15.72;100.00
73085;BME280;62974;49.460;10.892;2023-08-30T08:55:33;97121.44;;;15.81;100.00
73085;BME280;62974;49.460;10.892;2023-08-30T08:58:03;97118.81;;;15.86;100.00
73085;BME280;62974;49.460;10.892;2023-08-30T09:00:31;97116.59;;;15.83;100.00
73085;BME280;62974;49.460;10.892;2023-08-30T09:02:59;97121.31;;;15.92;100.00
73085;BME280;62974;49.460;10.892;2023-08-30T09:05:27;97122.41;;;16.13;100.00
73085;BME280;62974;49.460;10.892;2023-08-30T09:07:58;97120.91;;;16.22;100.00
73085;BME280;62974;49.460;10.892;2023-08-30T09:10:25;97129.13;;;16.32;100.00
73085;BME280;62974;49.460;10.892;2023-08-30T09:12:53;97126.13;;;16.29;100.00
73085;BME280;62974;49.460;10.892;2023-08-30T09:15:20;97123.25;;;16.40;100.00
73085;BME280;62974;49.460;10.892;2023-08-30T09:17:48;97129.72;;;16.34;100.00
73085;BME280;62974;49.460;10.892;2023-08-30T09:20:16;97127.53;;;16.31;100.00
73085;BME280;62974;49.460;10.892;2023-08-30T09:22:46;97129.34;;;16.48;100.00
73085;BME280;62974;49.460;10.892;2023-08-30T09:25:24;97122.66;;;16.33;100.00
73085;BME280;62974;49.460;10.892;2023-08-30T09:27:56;97127.88;;;16.40;100.00
73085;BME280;62974;49.460;10.892;2023-08-30T09:30:24;97129.63;;;16.51;100.00
73085;BME280;62974;49.460;10.892;2023-08-30T09:32:52;97125.81;;;16.52;100.00
73085;BME280;62974;49.460;10.892;2023-08-30T09:35:20;97131.22;;;16.47;100.00
73085;BME280;62974;49.460;10.892;2023-08-30T09:37:48;97124.97;;;16.47;100.00
73085;BME280;62974;49.460;10.892;2023-08-30T09:40:18;97129.13;;;16.54;100.00
73085;BME280;62974;49.460;10.892;2023-08-30T09:42:48;97122.69;;;16.60;100.00
73085;BME280;62974;49.460;10.892;2023-08-30T09:45:32;97126.75;;;16.58;100.00
73085;BME280;62974;49.460;10.892;2023-08-30T09:48:02;97125.78;;;16.47;100.00
73085;BME280;62974;49.460;10.892;2023-08-30T09:50:32;97129.06;;;16.71;100.00
73085;BME280;62974;49.460;10.892;2023-08-30T09:53:03;97123.63;;;16.71;100.00
73085;BME280;62974;49.460;10.892;2023-08-30T09:55:33;97119.75;;;16.62;100.00
73085;BME280;62974;49.460;10.892;2023-08-30T09:58:03;97119.28;;;16.70;100.00
73085;BME280;62974;49.460;10.892;2023-08-30T10:00:31;97118.47;;;16.69;100.00
73085;BME280;62974;49.460;10.892;2023-08-30T10:03:00;97116.50;;;16.65;100.00
73085;BME280;62974;49.460;10.892;2023-08-30T10:05:48;97100.91;;;16.77;100.00
73085;BME280;62974;49.460;10.892;2023-08-30T10:08:17;97103.38;;;16.78;100.00
73085;BME280;62974;49.460;10.892;2023-08-30T10:10:45;97096.41;;;16.87;100.00
73085;BME280;62974;49.460;10.892;2023-08-30T10:13:14;97102.22;;;17.01;100.00
73085;BME280;62974;49.460;10.892;2023-08-30T10:15:45;97096.59;;;17.08;100.00
73085;BME280;62974;49.460;10.892;2023-08-30T10:18:19;97092.78;;;17.09;100.00
73085;BME280;62974;49.460;10.892;2023-08-30T10:20:49;97098.47;;;17.07;100.00
73085;BME280;62974;49.460;10.892;2023-08-30T10:23:21;97081.97;;;16.82;100.00
73085;BME280;62974;49.460;10.892;2023-08-30T10:25:50;97090.41;;;16.85;100.00
73085;BME280;62974;49.460;10.892;2023-08-30T10:28:21;97088.75;;;17.11;100.00
73085;BME280;62974;49.460;10.892;2023-08-30T10:30:51;97087.78;;;17.27;99.67
73085;BME280;62974;49.460;10.892;2023-08-30T10:33:18;97078.19;;;17.57;93.64
73085;BME280;62974;49.460;10.892;2023-08-30T10:35:52;97085.69;;;17.81;97.92
73085;BME280;62974;49.460;10.892;2023-08-30T10:38:25;97084.38;;;17.89;97.11
73085;BME280;62974;49.460;10.892;2023-08-30T10:40:54;97072.47;;;17.95;94.14
73085;BME280;62974;49.460;10.892;2023-08-30T10:43:29;97081.75;;;17.57;95.01
73085;BME280;62974;49.460;10.892;2023-08-30T10:46:00;97076.78;;;17.96;94.57
73085;BME280;62974;49.460;10.892;2023-08-30T10:48:35;97070.56;;;18.01;94.07
73085;BME280;62974;49.460;10.892;2023-08-30T10:51:05;97068.25;;;18.35;91.78
73085;BME280;62974;49.460;10.892;2023-08-30T10:53:33;97075.09;;;17.80;94.38
73085;BME280;62974;49.460;10.892;2023-08-30T10:56:09;97065.22;;;17.64;93.72
73085;BME280;62974;49.460;10.892;2023-08-30T10:58:44;97070.38;;;17.60;94.00
73085;BME280;62974;49.460;10.892;2023-08-30T11:01:12;97067.69;;;17.65;94.15
73085;BME280;62974;49.460;10.892;2023-08-30T11:03:40;97070.31;;;17.55;91.59
73085;BME280;62974;49.460;10.892;2023-08-30T11:06:13;97070.31;;;17.55;94.35
73085;BME280;62974;49.460;10.892;2023-08-30T11:08:41;97069.88;;;17.68;94.79
73085;BME280;62974;49.460;10.892;2023-08-30T11:11:10;97056.00;;;17.65;89.79
73085;BME280;62974;49.460;10.892;2023-08-30T11:13:38;97060.72;;;17.84;92.00
73085;BME280;62974;49.460;10.892;2023-08-30T11:16:07;97052.25;;;17.71;86.95
73085;BME280;62974;49.460;10.892;2023-08-30T11:18:38;97055.56;;;17.88;91.29
73085;BME280;62974;49.460;10.892;2023-08-30T11:21:07;97066.16;;;17.84;93.55
73085;BME280;62974;49.460;10.892;2023-08-30T11:23:36;97064.28;;;17.90;95.18
73085;BME280;62974;49.460;10.892;2023-08-30T11:26:03;97035.50;;;17.94;89.65
73085;BME280;62974;49.460;10.892;2023-08-30T11:28:31;97048.78;;;17.86;92.28
73085;BME280;62974;49.460;10.892;2023-08-30T11:30:59;97043.44;;;17.54;84.83
73085;BME280;62974;49.460;10.892;2023-08-30T11:33:28;97049.41;;;17.56;89.44
73085;BME280;62974;49.460;10.892;2023-08-30T11:35:56;97053.44;;;17.48;89.87
73085;BME280;62974;49.460;10.892;2023-08-30T11:38:24;97054.75;;;17.41;91.76
73085;BME280;62974;49.460;10.892;2023-08-30T11:40:51;97056.34;;;17.36;92.90
73085;BME280;62974;49.460;10.892;2023-08-30T11:43:19;97055.50;;;17.31;92.78
73085;BME280;62974;49.460;10.892;2023-08-30T11:45:46;97055.19;;;17.22;92.90
73085;BME280;62974;49.460;10.892;2023-08-30T11:48:14;97050.78;;;17.16;90.65
73085;BME280;62974;49.460;10.892;2023-08-30T11:50:44;97044.41;;;17.37;93.34
73085;BME280;62974;49.460;10.892;2023-08-30T11:53:14;97048.19;;;17.36;92.10
73085;BME280;62974;49.460;10.892;2023-08-30T11:55:42;97051.78;;;17.42;94.47
73085;BME280;62974;49.460;10.892;2023-08-30T11:58:09;97053.13;;;17.40;91.69
73085;BME280;62974;49.460;10.892;2023-08-30T12:00:38;97041.03;;;17.20;86.70
73085;BME280;62974;49.460;10.892;2023-08-30T12:03:06;97040.66;;;17.44;88.27
73085;BME280;62974;49.460;10.892;2023-08-30T12:05:34;97042.28;;;17.97;87.91
73085;BME280;62974;49.460;10.892;2023-08-30T12:08:04;97039.06;;;18.05;88.10
73085;BME280;62974;49.460;10.892;2023-08-30T12:10:33;97040.53;;;18.38;86.47
73085;BME280;62974;49.460;10.892;2023-08-30T12:13:00;97037.69;;;17.97;87.87
73085;BME280;62974;49.460;10.892;2023-08-30T12:15:28;97038.66;;;17.71;89.32
73085;BME280;62974;49.460;10.892;2023-08-30T12:18:06;97038.94;;;17.74;93.79
73085;BME280;62974;49.460;10.892;2023-08-30T12:20:33;97025.34;;;17.69;88.19
73085;BME280;62974;49.460;10.892;2023-08-30T12:23:01;97036.47;;;17.63;92.02
73085;BME280;62974;49.460;10.892;2023-08-30T12:25:31;97032.97;;;17.72;91.56
73085;BME280;62974;49.460;10.892;2023-08-30T12:28:00;97033.00;;;17.88;89.65
73085;BME280;62974;49.460;10.892;2023-08-30T12:30:27;97031.34;;;17.71;90.46
73085;BME280;62974;49.460;10.892;2023-08-30T12:33:00;97029.41;;;17.72;91.19
73085;BME280;62974;49.460;10.892;2023-08-30T12:35:28;97025.59;;;17.68;86.73
73085;BME280;62974;49.460;10.892;2023-08-30T12:37:55;97020.47;;;17.71;89.52
73085;BME280;62974;49.460;10.892;2023-08-30T12:40:23;97022.13;;;17.77;82.49
73085;BME280;62974;49.460;10.892;2023-08-30T12:42:52;97018.59;;;17.77;78.69
73085;BME280;62974;49.460;10.892;2023-08-30T12:45:19;97024.59;;;17.84;82.33
73085;BME280;62974;49.460;10.892;2023-08-30T12:47:47;97024.59;;;17.79;84.76
73085;BME280;62974;49.460;10.892;2023-08-30T12:50:15;97029.19;;;17.78;86.26
73085;BME280;62974;49.460;10.892;2023-08-30T12:52:42;97015.91;;;17.82;83.17